Capitol Logistics 251


PANC
Ted Stevens Anchorage International Airport
Anchorage, Alaska, US
KHSV
Huntsville International Airport
Huntsville, Alabama, US

Route Details

Aircraft Information
Primary: Boeing 767-300BDSF
Backup: Not Available
Route Data
Distance: 2850nm
Sched. Duration: 6h 00m
Avg. Duration: 6h 19m (+20m)
Times Flown: 9
Recm'd Route: TED YESKA NCA13 YXY J515 YYE J537 YPE J601 XD YWV J475 VLN J483 MOT ABR Q19 DSM J45 IRK FAM J151 VUZ
Planned Altitude: 33,000ft
Origin Wx: PANC 061153Z 10SM FEW047 M03/M09 A2968 RMK AO2 SLP054 4/018 T10331089 10000 21039 56007 $
Dest. Wx: KHSV 061153Z 00000KT 8SM SCT100 12/11 A3010 RMK AO2 SLP189 T01170106 10144 20111 53017 $
Notes:

Financial History
Total Freight: 1,071,136lbs
Average Load: 119,015lbs/flt
Fuel Used: 801,664lbs
Avg. Fuel Used: 89,074lbs/flt
Fuel Expense: $985,639
Avg. Fuel Expense: $109,515
Avg. Fuel Cost: $1.23/lbs
Total Gross Income: $2,163,318
Pilot Pay: $1,911
Total Expenses: $234,106
Total Revenue: $929,500
Average Revenue: $240,368.70